Time;durP1;ratioP1;P1;durP2;ratioP2;P2;SDS_P1;SDS_P2;PMS_P1;PMS_P2;Temp;Humidity;BMP_temperature;BMP_pressure;BME280_temperature;BME280_humidity;BME280_pressure;Samples;Min_cycle;Max_cycle;Signal;HPM_P1;HPM_P2
2022/07/08 00:02:01;;;;;;;3.10;1.97;;;15.10;99.90;;;;;;5118048;28;20205;-88
2022/07/08 00:04:27;;;;;;;4.13;1.90;;;;;;;;;;5116860;28;20179;-88
2022/07/08 00:06:54;;;;;;;5.60;2.00;;;;;;;;;;5118013;28;20623;-88
2022/07/08 00:09:20;;;;;;;2.37;2.00;;;;;;;;;;5116350;28;20180;-88
2022/07/08 00:11:46;;;;;;;2.10;1.90;;;;;;;;;;5115971;28;20707;-88
2022/07/08 00:14:12;;;;;;;3.10;1.97;;;14.90;99.90;;;;;;5116380;28;20276;-88
2022/07/08 00:16:40;;;;;;;2.70;1.70;;;;;;;;;;5116067;28;20187;-88
2022/07/08 00:19:16;;;;;;;2.13;1.77;;;15.00;99.90;;;;;;5115980;28;20245;-88
2022/07/08 00:21:44;;;;;;;4.33;2.00;;;15.20;99.90;;;;;;5115804;28;20215;-88
2022/07/08 00:24:11;;;;;;;1.87;1.50;;;15.00;99.90;;;;;;5116063;28;20178;-88
2022/07/08 00:26:37;;;;;;;1.73;1.50;;;;;;;;;;5115887;28;20176;-88
2022/07/08 00:29:03;;;;;;;1.97;1.77;;;14.90;99.90;;;;;;5115969;28;20641;-88
2022/07/08 00:31:29;;;;;;;2.00;1.50;;;;;;;;;;5119036;28;20181;-89
2022/07/08 00:33:55;;;;;;;2.17;1.80;;;;;;;;;;5121240;28;20180;-88
2022/07/08 00:36:21;;;;;;;3.23;1.83;;;;;;;;;;5119815;28;20241;-88
2022/07/08 00:38:47;;;;;;;4.77;2.33;;;14.90;99.90;;;;;;5119826;28;20210;-88
2022/07/08 00:41:14;;;;;;;3.10;2.00;;;;;;;;;;5119563;28;20638;-89
2022/07/08 00:43:43;;;;;;;2.87;2.10;;;15.00;99.90;;;;;;5121009;28;20174;-88
2022/07/08 00:46:10;;;;;;;3.43;2.10;;;;;;;;;;5122540;28;20258;-89
2022/07/08 00:48:36;;;;;;;3.30;1.73;;;15.10;99.90;;;;;;5120469;28;20172;-89
2022/07/08 00:51:09;;;;;;;3.97;1.80;;;15.00;99.90;;;;;;5120740;28;20523;-88
2022/07/08 00:53:36;;;;;;;1.90;1.63;;;15.00;99.90;;;;;;5120762;28;20199;-88
2022/07/08 00:56:02;;;;;;;1.87;1.70;;;;;;;;;;5121269;28;20186;-88
2022/07/08 00:58:30;;;;;;;3.67;1.70;;;14.80;99.90;;;;;;5121879;28;20172;-88
2022/07/08 01:00:55;;;;;;;2.23;1.70;;;14.90;99.90;;;;;;5123566;28;20168;-88
2022/07/08 01:03:21;;;;;;;2.17;1.60;;;;;;;;;;5124392;28;20213;-88
2022/07/08 01:05:48;;;;;;;4.33;1.87;;;;;;;;;;5124423;28;20181;-88
2022/07/08 01:08:14;;;;;;;2.90;1.77;;;;;;;;;;5137402;28;20237;-88
2022/07/08 01:10:40;;;;;;;4.50;1.90;;;;;;;;;;5138403;28;20176;-89
2022/07/08 01:13:06;;;;;;;2.77;1.90;;;;;;;;;;5123794;28;20197;-88
2022/07/08 01:15:33;;;;;;;2.00;1.90;;;;;;;;;;5119970;28;20218;-88
2022/07/08 01:17:59;;;;;;;2.70;2.03;;;;;;;;;;5119372;28;20279;-88
2022/07/08 01:20:25;;;;;;;2.53;1.90;;;;;;;;;;5119832;28;20595;-88
2022/07/08 01:22:52;;;;;;;2.37;1.60;;;;;;;;;;5119035;28;20244;-88
2022/07/08 01:25:18;;;;;;;3.00;1.87;;;15.00;99.90;;;;;;5120151;28;20187;-88
2022/07/08 01:27:44;;;;;;;2.67;2.03;;;;;;;;;;5120584;28;20175;-88
2022/07/08 01:30:11;;;;;;;2.33;1.90;;;;;;;;;;5121486;28;20320;-88
2022/07/08 01:32:40;;;;;;;2.80;1.97;;;14.60;99.90;;;;;;5128806;28;20206;-88
2022/07/08 01:35:06;;;;;;;4.43;2.10;;;14.60;99.90;;;;;;5122489;28;20262;-88
2022/07/08 01:37:32;;;;;;;2.37;2.17;;;;;;;;;;5121256;28;20179;-88
2022/07/08 01:39:58;;;;;;;3.27;2.10;;;14.60;99.90;;;;;;5119228;28;20215;-87
2022/07/08 01:42:24;;;;;;;3.17;2.30;;;;;;;;;;5118739;28;20673;-87
2022/07/08 01:44:49;;;;;;;2.57;2.00;;;14.50;99.90;;;;;;5119986;28;20224;-88
2022/07/08 01:47:15;;;;;;;2.50;1.97;;;14.50;99.90;;;;;;5117513;28;20266;-88
2022/07/08 01:49:41;;;;;;;4.37;2.00;;;14.50;99.90;;;;;;5117612;28;20176;-88
2022/07/08 01:52:07;;;;;;;2.93;2.13;;;14.50;99.90;;;;;;5117392;28;20269;-88
2022/07/08 01:54:33;;;;;;;3.43;2.17;;;14.50;99.90;;;;;;5119018;28;20186;-88
2022/07/08 01:57:21;;;;;;;3.23;2.53;;;;;;;;;;5117998;28;20617;-87
2022/07/08 01:59:47;;;;;;;3.73;2.47;;;14.50;99.90;;;;;;5119558;28;20206;-88
2022/07/08 02:02:14;;;;;;;3.30;2.00;;;14.40;99.90;;;;;;5120043;28;20278;-88
2022/07/08 02:04:40;;;;;;;2.60;2.40;;;14.40;99.90;;;;;;5119291;28;20262;-87
2022/07/08 02:07:06;;;;;;;4.40;2.30;;;14.50;99.90;;;;;;5118939;28;20204;-87
2022/07/08 02:09:33;;;;;;;3.60;2.67;;;14.40;99.90;;;;;;5119775;28;20239;-87
2022/07/08 02:14:43;;;;;;;3.83;2.77;;;14.50;99.90;;;;;;5121460;28;20175;-87
2022/07/08 02:17:09;;;;;;;3.57;3.00;;;14.50;99.90;;;;;;5118684;28;20179;-87
2022/07/08 02:19:35;;;;;;;4.17;2.87;;;14.50;99.90;;;;;;5115043;28;20183;-87
2022/07/08 02:22:02;;;;;;;4.00;3.13;;;14.50;99.90;;;;;;5114975;28;20212;-87
2022/07/08 02:24:27;;;;;;;3.50;2.53;;;14.50;99.90;;;;;;5114819;28;20221;-87
2022/07/08 02:26:53;;;;;;;6.67;3.10;;;14.50;99.90;;;;;;5115486;28;20169;-87
2022/07/08 02:29:19;;;;;;;3.73;2.50;;;;;;;;;;5113941;28;20181;-86
2022/07/08 02:31:45;;;;;;;4.17;2.73;;;14.60;99.90;;;;;;5113907;28;20637;-87
2022/07/08 02:34:11;;;;;;;3.07;2.60;;;14.60;99.90;;;;;;5117108;28;20240;-87
2022/07/08 02:36:37;;;;;;;4.87;2.73;;;14.60;99.90;;;;;;5119871;28;20246;-86
2022/07/08 02:39:04;;;;;;;4.80;2.70;;;14.50;99.90;;;;;;5124372;28;20226;-88
2022/07/08 02:41:30;;;;;;;4.07;2.60;;;14.50;99.90;;;;;;5128413;28;20204;-88
2022/07/08 02:43:56;;;;;;;4.93;2.50;;;14.50;99.90;;;;;;5131042;28;20180;-88
2022/07/08 02:46:21;;;;;;;4.40;2.60;;;14.50;99.90;;;;;;5143126;28;20159;-87
2022/07/08 02:48:47;;;;;;;4.00;2.87;;;14.60;99.90;;;;;;5142488;28;20183;-86
2022/07/08 02:51:13;;;;;;;3.83;2.60;;;14.50;99.90;;;;;;5127241;28;20188;-87
2022/07/08 02:53:38;;;;;;;5.10;2.57;;;14.50;99.90;;;;;;5123379;28;20196;-88
2022/07/08 02:56:05;;;;;;;3.33;2.87;;;14.50;99.90;;;;;;5122068;28;20561;-88
2022/07/08 02:58:30;;;;;;;2.33;2.13;;;14.50;99.90;;;;;;5123683;28;20180;-87
2022/07/08 03:00:56;;;;;;;4.27;2.37;;;;;;;;;;5123418;28;20176;-88
2022/07/08 03:03:22;;;;;;;3.80;2.57;;;14.50;99.90;;;;;;5122337;28;20281;-87
2022/07/08 03:05:48;;;;;;;4.90;2.63;;;;;;;;;;5122068;28;20633;-87
2022/07/08 03:08:14;;;;;;;4.13;2.70;;;14.50;99.90;;;;;;5123738;28;20263;-87
2022/07/08 03:10:40;;;;;;;3.50;2.73;;;;;;;;;;5124665;28;20207;-88
2022/07/08 03:13:06;;;;;;;4.60;2.80;;;14.50;99.90;;;;;;5131736;28;20219;-87
2022/07/08 03:15:32;;;;;;;3.20;2.57;;;;;;;;;;5123101;28;20187;-87
2022/07/08 03:17:57;;;;;;;4.83;2.83;;;14.50;99.90;;;;;;5122724;28;20183;-87
2022/07/08 03:20:23;;;;;;;3.30;2.63;;;;;;;;;;5121923;28;20190;-88
2022/07/08 03:22:49;;;;;;;2.80;2.40;;;14.50;99.90;;;;;;5121404;28;20309;-88
2022/07/08 03:25:15;;;;;;;3.57;2.90;;;;;;;;;;5122667;28;20221;-88
2022/07/08 03:27:41;;;;;;;3.00;2.53;;;14.50;99.90;;;;;;5120941;28;20660;-87
2022/07/08 03:30:07;;;;;;;3.80;2.93;;;14.50;99.90;;;;;;5121526;28;20203;-88
2022/07/08 03:32:32;;;;;;;3.10;2.70;;;14.40;99.90;;;;;;5121701;28;20339;-88
2022/07/08 03:34:59;;;;;;;3.00;2.70;;;;;;;;;;5122578;28;20180;-88
2022/07/08 03:37:25;;;;;;;3.83;3.00;;;14.30;99.90;;;;;;5121787;28;20176;-88
2022/07/08 03:39:53;;;;;;;3.40;2.93;;;14.40;99.90;;;;;;5121888;28;20613;-87
2022/07/08 03:42:19;;;;;;;4.03;2.73;;;14.30;99.90;;;;;;5121907;28;20259;-88
2022/07/08 03:44:45;;;;;;;3.77;2.60;;;14.30;99.90;;;;;;5121797;28;20208;-88
2022/07/08 03:47:12;;;;;;;5.03;3.03;;;14.30;99.90;;;;;;5124748;28;20180;-87
2022/07/08 03:49:38;;;;;;;3.73;2.77;;;14.30;99.90;;;;;;5122316;28;20554;-88
2022/07/08 03:52:05;;;;;;;7.77;2.50;;;14.30;99.90;;;;;;5122117;28;20199;-88
2022/07/08 03:54:30;;;;;;;6.47;2.17;;;14.20;99.90;;;;;;5123665;28;20184;-88
2022/07/08 03:56:56;;;;;;;3.93;1.60;;;14.00;99.90;;;;;;5122351;28;20580;-88
2022/07/08 03:59:22;;;;;;;4.63;1.60;;;13.90;99.90;;;;;;5123101;28;20664;-88
2022/07/08 04:01:48;;;;;;;5.00;1.67;;;;;;;;;;5124818;28;20215;-88
2022/07/08 04:04:14;;;;;;;6.87;1.90;;;13.70;99.90;;;;;;5123975;28;20242;-88
2022/07/08 04:06:39;;;;;;;3.43;1.20;;;13.60;99.90;;;;;;5123883;28;20199;-88
2022/07/08 04:09:05;;;;;;;7.93;2.07;;;;;;;;;;5124788;28;20213;-88
2022/07/08 04:11:31;;;;;;;3.60;1.10;;;13.20;99.90;;;;;;5126905;28;20234;-88
2022/07/08 04:13:57;;;;;;;5.47;1.00;;;13.20;99.90;;;;;;5124024;28;20210;-88
2022/07/08 04:16:23;;;;;;;4.37;1.30;;;13.10;99.90;;;;;;5125478;28;20179;-88
2022/07/08 04:18:49;;;;;;;5.77;1.50;;;13.10;99.90;;;;;;5126759;28;20183;-88
2022/07/08 04:21:15;;;;;;;4.33;1.33;;;13.10;99.90;;;;;;5128047;28;20183;-88
2022/07/08 04:23:41;;;;;;;5.13;1.43;;;13.10;99.90;;;;;;5128184;28;20195;-88
2022/07/08 04:26:06;;;;;;;3.83;1.20;;;13.10;99.90;;;;;;5140960;28;20172;-88
2022/07/08 04:28:33;;;;;;;2.70;1.20;;;13.10;99.90;;;;;;5141014;28;20176;-86
2022/07/08 04:30:59;;;;;;;4.27;1.03;;;13.00;99.90;;;;;;5124168;28;20625;-87
2022/07/08 04:33:25;;;;;;;6.53;1.30;;;13.00;99.90;;;;;;5120077;28;20205;-87
2022/07/08 04:35:51;;;;;;;5.13;1.47;;;13.00;99.90;;;;;;5118939;28;20282;-87
2022/07/08 04:38:17;;;;;;;2.63;1.30;;;13.00;99.90;;;;;;5117942;28;20218;-87
2022/07/08 04:40:43;;;;;;;10.53;1.93;;;13.00;99.90;;;;;;5119437;28;20581;-87
2022/07/08 04:43:09;;;;;;;5.53;1.10;;;13.00;99.90;;;;;;5117503;28;20233;-87
2022/07/08 04:45:35;;;;;;;4.80;1.60;;;13.00;99.90;;;;;;5117894;28;20545;-87
2022/07/08 04:48:00;;;;;;;4.87;1.60;;;13.10;99.90;;;;;;5121330;28;20176;-88
2022/07/08 04:50:26;;;;;;;5.37;1.50;;;13.20;99.90;;;;;;5123433;28;20176;-88
2022/07/08 04:52:52;;;;;;;6.70;1.60;;;13.20;99.90;;;;;;5123307;28;20203;-88
2022/07/08 04:55:30;;;;;;;5.93;1.20;;;13.20;99.90;;;;;;5129939;28;20213;-87
2022/07/08 04:57:58;;;;;;;5.03;1.77;;;13.20;99.90;;;;;;5120828;28;20179;-87
2022/07/08 05:00:24;;;;;;;5.87;1.57;;;13.20;99.90;;;;;;5122028;28;20203;-88
2022/07/08 05:02:50;;;;;;;4.23;1.40;;;13.10;99.90;;;;;;5121871;28;20207;-88
2022/07/08 05:05:17;;;;;;;5.37;1.30;;;13.10;99.90;;;;;;5121370;28;20171;-88
2022/07/08 05:07:43;;;;;;;6.67;1.70;;;13.00;99.90;;;;;;5120432;28;20178;-88
2022/07/08 05:10:09;;;;;;;4.00;1.60;;;12.90;99.90;;;;;;5122287;28;20720;-88
2022/07/08 05:12:35;;;;;;;3.93;1.63;;;;;;;;;;5121580;28;20202;-88
2022/07/08 05:15:00;;;;;;;4.57;1.57;;;12.90;99.90;;;;;;5122870;28;20175;-88
2022/07/08 05:17:26;;;;;;;7.40;1.73;;;12.90;99.90;;;;;;5121035;28;20184;-88
2022/07/08 05:19:52;;;;;;;3.20;1.70;;;;;;;;;;5120758;28;20176;-88
2022/07/08 05:22:18;;;;;;;5.30;1.83;;;13.00;99.90;;;;;;5123144;28;20348;-88
2022/07/08 05:24:43;;;;;;;8.23;1.50;;;13.00;99.90;;;;;;5126412;28;20179;-88
2022/07/08 05:27:09;;;;;;;4.07;1.57;;;;;;;;;;5125407;28;20175;-88
2022/07/08 05:29:35;;;;;;;3.87;1.43;;;13.10;99.90;;;;;;5123225;28;20171;-88
2022/07/08 05:32:01;;;;;;;3.57;1.50;;;;;;;;;;5118872;28;20195;-87
2022/07/08 05:34:27;;;;;;;7.47;1.87;;;13.30;99.90;;;;;;5119227;28;20174;-88
2022/07/08 05:36:52;;;;;;;7.60;1.50;;;13.30;99.90;;;;;;5119649;28;20238;-88
2022/07/08 05:39:18;;;;;;;3.60;1.63;;;13.40;99.90;;;;;;5118226;28;20267;-88
2022/07/08 05:41:45;;;;;;;6.20;1.70;;;;;;;;;;5120320;28;20207;-88
2022/07/08 05:44:12;;;;;;;8.03;2.20;;;13.60;99.90;;;;;;5120008;28;20211;-88
2022/07/08 05:46:37;;;;;;;5.27;1.70;;;13.70;99.90;;;;;;5119784;28;20185;-88
2022/07/08 05:49:04;;;;;;;6.03;1.57;;;;;;;;;;5120889;28;20176;-88
2022/07/08 05:51:29;;;;;;;4.43;1.50;;;13.70;99.90;;;;;;5120486;28;20179;-88
2022/07/08 05:53:55;;;;;;;6.77;2.70;;;;;;;;;;5122105;28;20200;-88
2022/07/08 05:56:24;;;;;;;5.10;1.77;;;13.80;99.90;;;;;;5122325;28;20538;-88
2022/07/08 05:58:51;;;;;;;3.97;1.47;;;13.80;99.90;;;;;;5122976;28;20201;-88
2022/07/08 06:01:17;;;;;;;5.83;1.80;;;13.90;99.90;;;;;;5125281;28;20275;-88
2022/07/08 06:03:43;;;;;;;3.90;1.90;;;13.90;99.90;;;;;;5126671;28;20205;-88
2022/07/08 06:06:08;;;;;;;5.67;1.70;;;13.90;99.90;;;;;;5137766;28;20168;-87
2022/07/08 06:08:34;;;;;;;3.63;1.33;;;;;;;;;;5138411;28;20171;-87
2022/07/08 06:11:01;;;;;;;5.97;1.33;;;13.80;99.90;;;;;;5121472;28;20182;-86
2022/07/08 06:13:27;;;;;;;4.90;1.40;;;13.80;99.90;;;;;;5119799;28;20664;-87
2022/07/08 06:15:53;;;;;;;6.47;1.70;;;13.80;99.90;;;;;;5120570;28;20183;-87
2022/07/08 06:18:19;;;;;;;6.53;1.47;;;13.80;99.90;;;;;;5120740;28;20179;-87
2022/07/08 06:20:45;;;;;;;6.70;1.83;;;;;;;;;;5122542;28;20534;-87
2022/07/08 06:23:12;;;;;;;4.27;1.33;;;13.80;99.90;;;;;;5120624;28;20213;-87
2022/07/08 06:25:38;;;;;;;8.80;1.27;;;13.80;99.90;;;;;;5121807;28;20617;-86
2022/07/08 06:28:04;;;;;;;5.73;1.93;;;13.90;99.90;;;;;;5121723;28;20163;-87
2022/07/08 06:30:30;;;;;;;7.23;1.77;;;;;;;;;;5122964;28;20167;-88
2022/07/08 06:32:55;;;;;;;4.93;1.83;;;14.10;99.90;;;;;;5125189;28;20192;-87
2022/07/08 06:35:21;;;;;;;1.87;1.10;;;14.10;99.90;;;;;;5125361;28;20186;-86
2022/07/08 06:37:47;;;;;;;8.20;1.73;;;;;;;;;;5125679;28;20193;-87
2022/07/08 06:40:13;;;;;;;3.90;1.37;;;14.20;99.90;;;;;;5127143;28;20235;-86
2022/07/08 06:42:39;;;;;;;3.27;1.57;;;14.30;99.90;;;;;;5129390;28;20207;-85
2022/07/08 06:45:05;;;;;;;5.00;1.57;;;14.30;99.90;;;;;;5134488;28;20179;-86
2022/07/08 06:47:31;;;;;;;6.80;1.70;;;14.40;99.90;;;;;;5119398;28;20306;-84
2022/07/08 06:49:56;;;;;;;3.73;1.40;;;14.40;99.90;;;;;;5115489;28;20277;-84
2022/07/08 06:52:22;;;;;;;5.27;1.60;;;14.40;99.90;;;;;;5114698;28;20202;-84
2022/07/08 06:54:48;;;;;;;5.13;1.90;;;14.40;99.90;;;;;;5114286;28;20205;-84
2022/07/08 06:57:15;;;;;;;4.50;1.40;;;14.50;99.90;;;;;;5124051;28;20263;-85
2022/07/08 06:59:41;;;;;;;6.30;1.57;;;14.50;99.90;;;;;;5122011;28;20542;-84
2022/07/08 07:02:08;;;;;;;5.10;1.70;;;14.70;99.90;;;;;;5121892;28;20647;-84
2022/07/08 07:04:34;;;;;;;3.40;1.40;;;14.70;99.90;;;;;;5122475;28;20183;-84
2022/07/08 07:07:00;;;;;;;4.93;1.50;;;14.80;99.90;;;;;;5124787;28;20551;-85
2022/07/08 07:09:26;;;;;;;3.63;1.90;;;;;;;;;;5122920;28;20179;-85
2022/07/08 07:11:52;;;;;;;4.07;1.50;;;15.20;99.90;;;;;;5122820;28;20281;-84
2022/07/08 07:14:18;;;;;;;5.13;1.60;;;15.20;99.90;;;;;;5122758;28;20607;-84
2022/07/08 07:16:43;;;;;;;4.83;1.47;;;15.40;99.90;;;;;;5123705;28;20718;-85
2022/07/08 07:19:09;;;;;;;6.63;1.50;;;15.50;99.90;;;;;;5123574;28;20260;-84
2022/07/08 07:21:35;;;;;;;7.30;2.40;;;15.80;99.90;;;;;;5129028;28;20201;-84
2022/07/08 07:24:01;;;;;;;4.20;1.70;;;15.80;99.90;;;;;;5128582;28;20174;-84
2022/07/08 07:26:26;;;;;;;4.53;1.90;;;15.80;99.90;;;;;;5128492;28;20191;-84
2022/07/08 07:28:52;;;;;;;5.20;1.80;;;15.70;99.90;;;;;;5127809;28;20176;-85
2022/07/08 07:31:18;;;;;;;6.03;1.57;;;15.50;99.90;;;;;;5128007;28;20787;-85
2022/07/08 07:33:44;;;;;;;5.63;1.90;;;15.50;99.90;;;;;;5129027;28;20661;-84
2022/07/08 07:36:10;;;;;;;8.30;1.90;;;15.30;99.90;;;;;;5128073;28;20181;-85
2022/07/08 07:38:35;;;;;;;3.90;1.50;;;15.20;99.90;;;;;;5129030;28;20206;-85
2022/07/08 07:41:01;;;;;;;5.77;2.10;;;15.10;99.90;;;;;;5131027;28;20228;-85
2022/07/08 07:43:27;;;;;;;8.40;1.90;;;15.10;99.90;;;;;;5129885;28;20219;-84
2022/07/08 07:45:53;;;;;;;3.73;1.70;;;15.10;99.90;;;;;;5134634;28;20175;-82
2022/07/08 07:48:19;;;;;;;3.80;1.90;;;15.20;99.90;;;;;;5141601;28;20171;-83
2022/07/08 07:50:44;;;;;;;1.73;1.20;;;15.20;99.90;;;;;;5140114;28;20199;-84
2022/07/08 07:53:12;;;;;;;4.77;1.50;;;15.30;99.90;;;;;;5121721;28;20203;-84
2022/07/08 07:55:38;;;;;;;3.97;1.47;;;15.30;99.90;;;;;;5122437;28;20190;-84
2022/07/08 07:58:03;;;;;;;6.13;1.60;;;15.30;99.90;;;;;;5122317;28;20179;-84
2022/07/08 08:00:29;;;;;;;5.10;1.70;;;15.40;99.90;;;;;;5122736;28;20694;-84
2022/07/08 08:02:55;;;;;;;5.30;1.90;;;15.50;99.90;;;;;;5124067;28;20222;-84
2022/07/08 08:05:20;;;;;;;7.90;1.83;;;15.60;99.90;;;;;;5122092;28;20183;-83
2022/07/08 08:07:46;;;;;;;4.60;1.90;;;15.70;99.90;;;;;;5122071;28;20204;-84
2022/07/08 08:10:13;;;;;;;9.07;2.30;;;15.80;99.90;;;;;;5123850;28;20292;-83
2022/07/08 08:12:39;;;;;;;6.37;2.33;;;16.20;99.90;;;;;;5121848;28;20196;-83
2022/07/08 08:15:05;;;;;;;6.03;1.97;;;16.30;99.90;;;;;;5122659;28;20195;-83
2022/07/08 08:17:38;;;;;;;4.23;1.80;;;16.40;99.90;;;;;;5120689;28;20184;-83
2022/07/08 08:20:06;;;;;;;5.40;1.80;;;16.50;99.90;;;;;;5121980;28;20709;-83
2022/07/08 08:22:32;;;;;;;5.00;1.87;;;16.50;99.90;;;;;;5121412;28;20218;-83
2022/07/08 08:24:59;;;;;;;4.13;1.83;;;16.50;99.90;;;;;;5122028;28;20176;-83
2022/07/08 08:27:25;;;;;;;10.17;1.60;;;16.40;99.90;;;;;;5120463;28;20646;-83
2022/07/08 08:29:51;;;;;;;3.93;1.43;;;16.50;99.90;;;;;;5120836;28;20182;-83
2022/07/08 08:32:16;;;;;;;7.30;2.07;;;16.60;99.90;;;;;;5119026;28;20199;-83
2022/07/08 08:34:42;;;;;;;4.03;1.67;;;16.60;99.90;;;;;;5119757;28;20177;-84
2022/07/08 08:37:08;;;;;;;5.03;1.90;;;16.70;99.90;;;;;;5119845;28;20190;-83
2022/07/08 08:39:34;;;;;;;3.90;1.70;;;16.70;99.90;;;;;;5121978;28;20264;-83
2022/07/08 08:42:00;;;;;;;3.67;1.50;;;16.80;99.90;;;;;;5121277;28;20228;-83
2022/07/08 08:44:26;;;;;;;3.47;1.60;;;16.80;99.90;;;;;;5120487;28;20177;-85
2022/07/08 08:46:56;;;;;;;5.13;2.10;;;16.90;99.90;;;;;;5119048;28;20516;-82
2022/07/08 08:49:22;;;;;;;5.10;2.00;;;16.90;99.90;;;;;;5119371;28;20175;-83
2022/07/08 08:51:49;;;;;;;2.80;1.80;;;16.70;99.90;;;;;;5120007;28;20215;-84
2022/07/08 08:54:18;;;;;;;8.37;2.07;;;16.70;99.90;;;;;;5120118;28;20256;-84
2022/07/08 08:56:47;;;;;;;4.67;1.87;;;16.60;99.90;;;;;;5118569;28;20657;-85
2022/07/08 08:59:14;;;;;;;4.97;2.00;;;16.70;99.90;;;;;;5117471;28;20186;-84
2022/07/08 09:01:41;;;;;;;5.53;2.17;;;17.00;99.90;;;;;;5116457;28;20205;-84
2022/07/08 09:04:10;;;;;;;5.33;1.70;;;17.10;99.90;;;;;;5118343;28;20178;-85
2022/07/08 09:06:37;;;;;;;5.97;1.60;;;17.30;99.90;;;;;;5129889;28;20177;-86
2022/07/08 09:09:03;;;;;;;3.80;1.70;;;17.40;99.90;;;;;;5127711;28;20199;-87
2022/07/08 09:11:30;;;;;;;3.23;1.57;;;17.40;99.90;;;;;;5138307;28;20211;-84
2022/07/08 09:14:15;;;;;;;4.73;1.77;;;17.40;99.90;;;;;;5136771;28;20181;-85
2022/07/08 09:17:01;;;;;;;3.77;1.70;;;17.30;99.90;;;;;;5127564;28;20623;-85
2022/07/08 09:19:27;;;;;;;4.00;1.53;;;17.20;99.90;;;;;;5126039;28;20193;-85
2022/07/08 09:21:53;;;;;;;2.30;1.63;;;17.00;99.90;;;;;;5126485;28;20212;-85
2022/07/08 09:24:22;;;;;;;6.93;1.90;;;17.00;99.90;;;;;;5127696;28;20188;-86
2022/07/08 09:26:48;;;;;;;2.50;1.53;;;17.00;99.90;;;;;;5131580;28;20175;-84
2022/07/08 09:29:13;;;;;;;4.03;1.23;;;17.30;99.90;;;;;;5139940;28;20172;-84
2022/07/08 09:31:39;;;;;;;5.60;1.60;;;17.40;99.90;;;;;;5140171;28;20180;-85
2022/07/08 09:34:10;;;;;;;6.37;1.87;;;17.40;99.90;;;;;;5121161;28;20196;-85
2022/07/08 09:36:49;;;;;;;5.80;1.77;;;17.50;99.90;;;;;;5122589;28;20631;-85
2022/07/08 09:39:25;;;;;;;3.83;1.90;;;17.60;99.90;;;;;;5120600;28;20201;-85
2022/07/08 09:41:52;;;;;;;6.60;1.93;;;17.70;99.90;;;;;;5122482;28;20205;-85
2022/07/08 09:44:20;;;;;;;3.57;1.60;;;17.80;99.90;;;;;;5120745;28;20184;-85
2022/07/08 09:46:47;;;;;;;9.57;1.60;;;18.30;99.90;;;;;;5122396;28;20177;-85
2022/07/08 09:49:33;;;;;;;4.73;2.07;;;18.80;99.90;;;;;;5121592;28;20181;-85
2022/07/08 09:51:59;;;;;;;3.40;1.63;;;19.10;99.90;;;;;;5121493;28;20206;-86
2022/07/08 09:54:27;;;;;;;2.80;1.50;;;19.20;99.90;;;;;;5120865;28;20183;-86
2022/07/08 09:57:03;;;;;;;4.10;1.63;;;19.50;99.90;;;;;;5122237;28;20560;-84
2022/07/08 09:59:32;;;;;;;5.20;1.90;;;19.80;99.90;;;;;;5124334;28;20170;-84
2022/07/08 10:01:59;;;;;;;4.40;1.90;;;19.50;99.90;;;;;;5124826;28;20217;-84
2022/07/08 10:04:25;;;;;;;5.73;2.10;;;19.20;99.90;;;;;;5122090;28;20255;-84
2022/07/08 10:06:53;;;;;;;2.87;1.73;;;18.90;99.90;;;;;;5124168;28;20179;-85
2022/07/08 10:09:20;;;;;;;5.10;1.60;;;19.10;99.90;;;;;;5124442;28;20574;-84
2022/07/08 10:11:47;;;;;;;4.67;1.63;;;19.90;99.90;;;;;;5123454;28;20209;-84
2022/07/08 10:14:14;;;;;;;5.07;1.80;;;20.00;99.90;;;;;;5123514;28;20716;-85
2022/07/08 10:16:42;;;;;;;2.73;1.60;;;20.20;99.90;;;;;;5123581;28;20281;-84
2022/07/08 10:19:13;;;;;;;3.33;1.43;;;20.40;99.90;;;;;;5124399;28;20176;-84
2022/07/08 10:21:41;;;;;;;3.50;1.73;;;20.50;99.90;;;;;;5125533;28;20199;-85
2022/07/08 10:24:10;;;;;;;4.00;1.80;;;20.30;99.90;;;;;;5125442;28;20221;-86
2022/07/08 10:26:40;;;;;;;3.70;1.50;;;19.90;99.90;;;;;;5126103;28;20176;-86
2022/07/08 10:29:12;;;;;;;2.90;1.67;;;19.80;99.90;;;;;;5135126;28;20168;-86
2022/07/08 10:31:41;;;;;;;2.00;1.30;;;20.20;99.90;;;;;;5134884;28;20289;-86
2022/07/08 10:34:08;;;;;;;5.53;2.17;;;20.20;99.90;;;;;;5123358;28;20182;-86
2022/07/08 10:36:51;;;;;;;4.83;1.80;;;20.00;99.90;;;;;;5124070;28;20182;-86
2022/07/08 10:39:31;;;;;;;3.50;1.80;;;19.80;99.90;;;;;;5122047;28;20191;-86
2022/07/08 10:41:58;;;;;;;7.03;1.57;;;19.30;99.90;;;;;;5122614;28;20207;-85
2022/07/08 10:44:46;;;;;;;6.80;1.50;;;19.50;99.90;;;;;;5121254;28;20183;-86
2022/07/08 10:47:38;;;;;;;4.10;1.73;;;19.70;99.90;;;;;;5120597;28;20250;-86
2022/07/08 10:50:08;;;;;;;3.33;1.60;;;20.20;99.90;;;;;;5120346;28;20595;-86
2022/07/08 10:52:41;;;;;;;5.50;1.60;;;20.70;99.90;;;;;;5121548;28;20199;-86
2022/07/08 10:55:17;;;;;;;1.57;1.33;;;21.30;99.90;;;;;;5125608;28;20546;-86
2022/07/08 10:57:56;;;;;;;4.43;1.60;;;21.60;99.90;;;;;;5126614;28;20655;-86
2022/07/08 11:00:22;;;;;;;2.43;1.30;;;21.70;99.90;;;;;;5125643;28;20175;-86
2022/07/08 11:02:49;;;;;;;2.90;1.53;;;21.50;99.90;;;;;;5125294;28;20207;-86
2022/07/08 11:05:41;;;;;;;2.20;1.40;;;21.20;99.90;;;;;;5128659;28;20179;-86
2022/07/08 11:08:19;;;;;;;3.47;1.50;;;20.80;99.90;;;;;;5128942;28;20176;-86
2022/07/08 11:10:46;;;;;;;5.10;1.50;;;20.40;99.90;;;;;;5139023;28;20175;-82
2022/07/08 11:13:11;;;;;;;3.00;1.40;;;20.30;99.90;;;;;;5124263;28;20595;-87
2022/07/08 11:15:37;;;;;;;6.33;1.63;;;20.30;99.90;;;;;;5132105;28;20633;-86
2022/07/08 11:18:03;;;;;;;5.77;1.93;;;20.60;99.90;;;;;;5124180;28;20176;-85
2022/07/08 11:20:33;;;;;;;4.73;1.50;;;21.10;99.90;;;;;;5126868;28;20179;-84
2022/07/08 11:23:04;;;;;;;5.10;1.67;;;21.80;99.90;;;;;;5126089;28;20216;-86
2022/07/08 11:25:30;;;;;;;4.10;1.60;;;21.90;99.90;;;;;;5123042;28;20235;-86
2022/07/08 11:27:56;;;;;;;4.10;1.13;;;21.70;99.90;;;;;;5125845;28;20178;-86
2022/07/08 11:30:22;;;;;;;2.23;1.53;;;21.90;99.90;;;;;;5125089;28;20178;-85
2022/07/08 11:32:49;;;;;;;7.27;1.57;;;22.40;99.90;;;;;;5123852;28;20324;-87
2022/07/08 11:35:17;;;;;;;3.60;1.43;;;22.70;99.90;;;;;;5126008;28;20664;-85
2022/07/08 11:37:44;;;;;;;4.77;1.40;;;22.40;99.90;;;;;;5131134;28;20559;-86
2022/07/08 11:40:11;;;;;;;4.13;1.60;;;21.60;99.90;;;;;;5121137;28;20219;-83
2022/07/08 11:42:38;;;;;;;3.50;1.40;;;20.90;99.90;;;;;;5120080;28;20208;-83
2022/07/08 11:45:05;;;;;;;8.53;1.53;;;21.20;99.90;;;;;;5121083;28;20207;-84
2022/07/08 11:47:31;;;;;;;4.43;1.67;;;21.90;99.90;;;;;;5120491;28;20172;-86
2022/07/08 11:49:57;;;;;;;2.33;1.47;;;22.50;99.90;;;;;;5121622;28;20664;-86
2022/07/08 11:52:23;;;;;;;4.87;1.63;;;22.90;99.90;;;;;;5123287;28;20192;-86
2022/07/08 11:54:49;;;;;;;6.33;1.23;;;22.80;99.90;;;;;;5124417;28;20233;-85
2022/07/08 11:57:16;;;;;;;4.17;1.50;;;22.90;99.90;;;;;;5119240;28;20180;-87
2022/07/08 11:59:45;;;;;;;5.07;1.67;;;22.90;99.90;;;;;;5118028;28;20183;-87
2022/07/08 12:02:11;;;;;;;3.80;1.60;;;22.30;99.90;;;;;;5119393;28;20206;-87
2022/07/08 12:04:37;;;;;;;9.60;2.20;;;;;;;;;;5125512;28;20679;-85
2022/07/08 12:07:19;;;;;;;4.73;1.77;;;22.80;99.90;;;;;;5126257;28;20186;-84
2022/07/08 12:09:59;;;;;;;2.77;1.30;;;23.10;99.90;;;;;;5125047;28;20163;-86
2022/07/08 12:12:27;;;;;;;4.07;1.50;;;23.50;99.90;;;;;;5127076;28;20602;-86
2022/07/08 12:14:53;;;;;;;2.67;1.50;;;23.90;99.90;;;;;;5125970;28;20182;-85
2022/07/08 12:17:27;;;;;;;6.00;1.87;;;24.20;99.90;;;;;;5125428;28;20184;-86
2022/07/08 12:19:56;;;;;;;4.73;1.43;;;24.30;99.90;;;;;;5127045;28;20183;-86
2022/07/08 12:22:47;;;;;;;3.03;1.30;;;24.10;99.90;;;;;;5126350;28;20203;-87
2022/07/08 12:25:15;;;;;;;2.83;1.20;;;23.70;98.20;;;;;;5126988;28;20231;-86
2022/07/08 12:27:41;;;;;;;3.30;1.50;;;23.10;99.90;;;;;;5126696;28;20175;-86
2022/07/08 12:30:08;;;;;;;2.20;1.10;;;23.30;99.90;;;;;;5126970;28;20233;-86
2022/07/08 12:32:41;;;;;;;6.00;1.67;;;23.60;99.90;;;;;;5123465;28;20195;-87
2022/07/08 12:35:09;;;;;;;4.03;1.43;;;23.70;99.90;;;;;;5123916;28;20175;-86
2022/07/08 12:37:35;;;;;;;4.03;1.70;;;;;;;;;;5125190;28;20191;-86
2022/07/08 12:40:20;;;;;;;5.43;1.53;;;24.20;98.80;;;;;;5122342;28;20176;-86
2022/07/08 12:43:03;;;;;;;3.87;1.33;;;24.40;99.90;;;;;;5121928;28;20232;-86
2022/07/08 12:45:29;;;;;;;2.90;1.20;;;24.40;99.80;;;;;;5122893;28;20179;-87
2022/07/08 12:47:55;;;;;;;2.87;1.20;;;;;;;;;;5121659;28;20171;-87
2022/07/08 12:50:21;;;;;;;3.33;1.50;;;24.30;97.40;;;;;;5130085;28;20183;-86
2022/07/08 12:52:47;;;;;;;6.50;1.23;;;24.20;98.80;;;;;;5133695;28;20200;-87
2022/07/08 12:55:13;;;;;;;4.20;1.47;;;24.50;99.90;;;;;;5136670;28;20172;-86
2022/07/08 12:57:39;;;;;;;2.83;1.23;;;24.60;98.40;;;;;;5128348;28;20196;-87
2022/07/08 13:00:05;;;;;;;3.67;1.43;;;24.90;99.90;;;;;;5120390;28;20669;-86
2022/07/08 13:02:31;;;;;;;3.83;1.30;;;25.10;96.50;;;;;;5120801;28;20352;-87
2022/07/08 13:04:57;;;;;;;4.37;1.60;;;25.10;99.90;;;;;;5121480;28;20726;-86
2022/07/08 13:07:23;;;;;;;3.73;1.27;;;25.30;98.40;;;;;;5121274;28;20263;-86